Mirabile, Missouri
Current Conditions -  °F | °C
As of 4:55 AM on Friday 31 Oct 2014 (Local Time) from KGPH Reporting Station
Overcast Overcast  
Wind Chill: 33°   Ceiling: 2700
Heat Index: 43°   Visibility: 10mi
Dew Point: 32°   Wind: 25mph
Humidity: 66%   Direction: 340°NNW
Pressure: 30.34"   Gusts: 33mph
Location:  39.5693°N, 94.0956°W
Report Text: KGPH 310955Z AUTO 34022G29KT 10SM OVC027 06/00 A3034 RMK AO2
Loading
Personal Weather Stations






























Interactive Weather Map
Tropical Storm Tracking
New forecast layout! Learn more

10-Day Weather Forecast

Advertisements
Track Severe Weather on mobile